createdAt,value
2022-09-09T00:05:10.373Z,73.87
2022-09-09T00:20:11.108Z,75.06
2022-09-09T00:35:11.801Z,73.91
2022-09-09T00:50:13.665Z,74.15
2022-09-09T01:05:14.860Z,73.67
2022-09-09T01:20:16.047Z,74.72
2022-09-09T01:35:16.735Z,76.53
2022-09-09T01:50:17.431Z,77.00
2022-09-09T02:05:18.679Z,77.28
2022-09-09T02:20:19.940Z,77.11
2022-09-09T02:35:21.089Z,77.56
2022-09-09T02:50:22.244Z,77.25
2022-09-09T03:05:23.359Z,77.19
2022-09-09T03:20:24.521Z,76.30
2022-09-09T03:35:25.874Z,75.96
2022-09-09T03:50:26.543Z,75.89
2022-09-09T04:05:27.212Z,76.23
2022-09-09T04:20:28.386Z,77.09
2022-09-09T04:35:29.583Z,76.78
2022-09-09T04:50:30.749Z,76.31
2022-09-09T05:05:31.892Z,76.68
2022-09-09T05:20:32.995Z,78.14
2022-09-09T05:35:34.776Z,85.13
2022-09-09T05:50:35.741Z,83.46
2022-09-09T06:05:36.893Z,78.51
2022-09-09T06:20:37.999Z,68.93
2022-09-09T06:35:39.150Z,74.30
2022-09-09T06:50:40.130Z,99.99
2022-09-09T07:05:41.267Z,99.99
2022-09-09T07:20:42.374Z,99.99
2022-09-09T07:35:44.699Z,99.99
2022-09-09T07:50:46.067Z,97.20
2022-09-09T08:05:46.483Z,98.26
2022-09-09T08:20:48.659Z,93.41
2022-09-09T08:35:49.621Z,91.16
2022-09-09T08:50:50.299Z,90.02
2022-09-09T09:05:51.412Z,89.87
2022-09-09T09:20:53.635Z,92.42
2022-09-09T09:35:53.758Z,86.27
2022-09-09T09:50:53.790Z,87.39
2022-09-09T10:05:54.005Z,82.86
2022-09-09T10:20:55.013Z,77.02
2022-09-09T10:35:55.261Z,73.10
2022-09-09T10:51:00.929Z,74.99
2022-09-09T11:06:01.631Z,70.72
2022-09-09T11:21:02.597Z,66.58
2022-09-09T11:36:07.212Z,64.97
2022-09-09T11:51:11.036Z,64.60
2022-09-09T12:06:12.666Z,68.96
2022-09-09T12:21:12.784Z,70.68
2022-09-09T12:36:12.863Z,69.79
2022-09-09T12:51:12.980Z,69.59
2022-09-09T13:06:13.028Z,66.91
2022-09-09T13:21:13.101Z,69.20
2022-09-09T13:36:13.198Z,72.91
2022-09-09T13:51:13.539Z,71.19
2022-09-09T14:06:14.393Z,76.54
2022-09-09T14:21:14.506Z,79.70
2022-09-09T14:36:16.984Z,80.04
2022-09-09T14:51:18.579Z,77.94
2022-09-09T15:06:18.623Z,77.14
2022-09-09T15:21:19.230Z,76.54
2022-09-09T15:36:19.542Z,79.88
2022-09-09T15:51:41.326Z,87.21
2022-09-09T16:06:26.748Z,89.89
2022-09-09T16:21:28.314Z,93.13
2022-09-09T16:36:29.381Z,96.92
2022-09-09T16:51:29.469Z,99.77
2022-09-09T17:06:29.095Z,99.99
2022-09-09T17:21:30.159Z,99.99
2022-09-09T17:36:30.286Z,99.99
2022-09-09T17:51:30.882Z,99.99
2022-09-09T18:06:31.020Z,99.99
2022-09-09T18:21:31.571Z,99.99
2022-09-09T18:36:32.211Z,99.38
2022-09-09T18:51:33.362Z,99.99
2022-09-09T19:06:34.383Z,99.99
2022-09-09T19:21:34.462Z,99.99
2022-09-09T19:36:34.593Z,99.99
2022-09-09T19:51:34.747Z,99.99
2022-09-09T20:06:34.853Z,99.99
2022-09-09T20:21:35.198Z,99.99
2022-09-09T20:36:36.088Z,99.99
2022-09-09T20:51:36.255Z,98.31
2022-09-09T21:06:37.196Z,98.66
2022-09-09T21:21:37.453Z,99.99
2022-09-09T21:36:37.565Z,99.99
2022-09-09T21:51:37.690Z,99.99
2022-09-09T22:06:37.818Z,99.99
2022-09-09T22:21:37.922Z,99.99
2022-09-09T22:36:38.503Z,99.99
2022-09-09T22:51:39.091Z,99.99
2022-09-09T23:06:40.540Z,99.99
2022-09-09T23:21:40.805Z,98.41
2022-09-09T23:36:42.175Z,95.97
2022-09-09T23:51:43.073Z,94.85
